Time;durP1;ratioP1;P1;durP2;ratioP2;P2;SDS_P1;SDS_P2;PMS_P1;PMS_P2;Temp;Humidity;BMP_temperature;BMP_pressure;BME280_temperature;BME280_humidity;BME280_pressure;Samples;Min_cycle;Max_cycle;Signal;HPM_P1;HPM_P2
2023/03/03 00:01:17;;;;;;;31.67;12.73;;;;;;;3.53;63.99;100925.88;5071149;28;20039;-57
2023/03/03 00:03:42;;;;;;;30.80;11.43;;;;;;;3.54;64.28;100933.69;5095554;28;20035;-57
2023/03/03 00:06:11;;;;;;;26.38;12.52;;;;;;;3.93;62.81;100942.94;5094563;28;20040;-57
2023/03/03 00:08:38;;;;;;;35.45;12.65;;;;;;;4.13;62.09;100925.91;5089522;28;20664;-57
2023/03/03 00:11:05;;;;;;;27.58;13.25;;;;;;;4.07;62.29;100932.72;5075053;28;20063;-56
2023/03/03 00:13:36;;;;;;;29.08;13.23;;;;;;;4.06;62.66;100938.78;5099451;28;20161;-56
2023/03/03 00:16:15;;;;;;;24.92;10.20;;;;;;;4.14;62.41;100935.44;5085090;28;20472;-57
2023/03/03 00:18:44;;;;;;;27.85;11.25;;;;;;;4.26;61.71;100947.72;5104547;28;20073;-57
2023/03/03 00:21:28;;;;;;;23.55;10.40;;;;;;;4.20;61.86;100943.34;5096436;28;20476;-57
2023/03/03 00:24:15;;;;;;;22.58;10.95;;;;;;;4.32;61.51;100941.75;5104582;28;20050;-58
2023/03/03 00:26:46;;;;;;;23.25;10.73;;;;;;;4.35;61.51;100941.75;5106592;28;20134;-57
2023/03/03 00:29:32;;;;;;;25.08;12.32;;;;;;;4.07;62.01;100928.44;5096403;28;20032;-58
2023/03/03 00:32:24;;;;;;;23.60;11.45;;;;;;;4.22;62.14;100929.47;5107210;28;20047;-57
2023/03/03 00:34:52;;;;;;;18.40;9.98;;;;;;;4.41;61.16;100921.91;5098714;28;20028;-57
2023/03/03 00:37:34;;;;;;;25.38;9.60;;;;;;;4.79;60.47;100924.09;5093399;28;20031;-58
2023/03/03 00:40:24;;;;;;;18.55;9.77;;;;;;;4.65;60.71;100913.50;5110758;28;20051;-58
2023/03/03 00:42:59;;;;;;;27.05;9.90;;;;;;;4.76;60.34;100920.56;5104282;28;20040;-57
2023/03/03 00:45:24;;;;;;;21.08;10.07;;;;;;;4.39;61.15;100909.75;5099351;28;20047;-57
2023/03/03 00:47:50;;;;;;;19.95;11.13;;;;;;;4.24;61.51;100919.97;5099489;28;20032;-60
2023/03/03 00:50:33;;;;;;;21.75;10.23;;;;;;;4.10;62.17;100898.97;5099116;28;20032;-57
2023/03/03 00:52:59;;;;;;;;;;;;;;;4.04;62.61;100899.78;5096359;28;20040;-57
2023/03/03 00:55:25;;;;;;;17.10;8.18;;;;;;;3.76;62.98;100895.06;5099689;28;19926;-57
2023/03/03 00:57:50;;;;;;;16.65;9.05;;;;;;;3.91;62.54;100892.66;5099182;28;20039;-57
2023/03/03 01:00:16;;;;;;;14.77;8.63;;;;;;;4.08;62.16;100895.50;5107511;28;20031;-57
2023/03/03 01:02:45;;;;;;;18.13;8.60;;;;;;;3.92;62.60;100884.88;5103486;28;20483;-57
2023/03/03 01:05:13;;;;;;;18.02;8.95;;;;;;;3.88;62.72;100887.44;5091323;28;20036;-58
2023/03/03 01:07:38;;;;;;;15.43;7.97;;;;;;;4.05;62.24;100878.09;5102048;28;20089;-57
2023/03/03 01:10:04;;;;;;;13.35;7.47;;;;;;;4.15;62.07;100882.59;5112198;28;20031;-57
2023/03/03 01:12:30;;;;;;;13.50;7.68;;;;;;;4.00;62.12;100881.50;5099850;28;20440;-58
2023/03/03 01:14:56;;;;;;;13.63;7.38;;;;;;;4.15;61.76;100882.59;5104051;28;20070;-58
2023/03/03 01:17:21;;;;;;;13.82;8.02;;;;;;;3.91;62.87;100890.94;5110428;28;20060;-58
2023/03/03 01:19:47;;;;;;;14.55;7.95;;;;;;;3.92;62.65;100889.22;5112233;28;20122;-58
2023/03/03 01:22:12;;;;;;;13.75;7.57;;;;;;;3.70;63.57;100882.81;5112509;28;20032;-57
2023/03/03 01:24:37;;;;;;;14.52;8.00;;;;;;;3.70;63.48;100875.03;5108240;28;20040;-56
2023/03/03 01:27:03;;;;;;;14.25;7.68;;;;;;;3.40;64.55;100878.06;5109835;28;20410;-57
2023/03/03 01:29:28;;;;;;;15.38;8.40;;;;;;;3.53;63.83;100880.00;5099523;28;20031;-57
2023/03/03 01:31:54;;;;;;;13.50;7.45;;;;;;;3.86;62.82;100878.72;5095824;28;20069;-57
2023/03/03 01:34:19;;;;;;;13.48;7.35;;;;;;;3.40;64.31;100870.28;5093069;28;20040;-57
2023/03/03 01:36:45;;;;;;;15.57;8.02;;;;;;;3.52;63.88;100857.47;5110465;28;20036;-57
2023/03/03 01:39:11;;;;;;;14.43;8.43;;;;;;;3.74;63.16;100856.03;5099129;28;20094;-55
2023/03/03 01:41:36;;;;;;;15.52;7.65;;;;;;;3.40;64.13;100857.28;5110875;28;20368;-57
2023/03/03 01:44:02;;;;;;;14.75;7.50;;;;;;;3.46;64.13;100846.97;5112918;28;20116;-58
2023/03/03 01:46:45;;;;;;;13.93;7.63;;;;;;;3.58;63.77;100835.88;5107116;28;20127;-58
2023/03/03 01:49:38;;;;;;;15.55;7.55;;;;;;;3.48;64.17;100845.28;5109368;28;20043;-58
2023/03/03 01:52:13;;;;;;;18.73;7.47;;;;;;;3.53;63.96;100848.81;5078219;28;20048;-58
2023/03/03 01:54:46;;;;;;;16.15;7.75;;;;;;;3.60;63.53;100844.59;5104634;28;20024;-59
2023/03/03 01:57:14;;;;;;;;;;;;;;;3.75;63.71;100843.91;5110829;28;20043;-58
2023/03/03 01:59:45;;;;;;;14.02;6.93;;;;;;;3.29;64.56;100838.94;5102057;28;19935;-56
2023/03/03 02:02:11;;;;;;;18.60;8.82;;;;;;;3.48;63.87;100828.81;5083840;28;20032;-58
2023/03/03 02:04:36;;;;;;;16.65;8.18;;;;;;;3.57;63.62;100840.19;5097863;28;20036;-59
2023/03/03 02:07:08;;;;;;;16.98;8.35;;;;;;;3.50;63.94;100842.69;5096488;28;20036;-58
2023/03/03 02:09:58;;;;;;;17.37;8.30;;;;;;;3.76;63.34;100845.66;5103468;28;20109;-56
2023/03/03 02:12:37;;;;;;;17.35;9.00;;;;;;;3.44;63.99;100838.28;5108555;28;20089;-56
2023/03/03 02:15:23;;;;;;;16.70;8.57;;;;;;;3.75;63.22;100846.50;5112331;28;20036;-57
2023/03/03 02:17:54;;;;;;;16.65;8.95;;;;;;;3.54;63.48;100834.97;5108086;28;20061;-58
2023/03/03 02:20:29;;;;;;;14.00;7.97;;;;;;;3.85;62.62;100850.97;5108008;28;20040;-57
2023/03/03 02:23:14;;;;;;;15.70;8.23;;;;;;;3.58;63.59;100844.53;5111328;28;20040;-58
2023/03/03 02:25:53;;;;;;;17.67;8.82;;;;;;;3.47;64.08;100827.91;5089634;28;20075;-58
2023/03/03 02:28:19;;;;;;;16.08;8.75;;;;;;;3.54;63.60;100831.50;5094122;28;20031;-58
2023/03/03 02:30:45;;;;;;;17.20;8.77;;;;;;;3.61;63.44;100825.53;5094762;28;20057;-58
2023/03/03 02:33:11;;;;;;;18.30;9.40;;;;;;;3.60;63.36;100835.06;5096698;28;20035;-58
2023/03/03 02:35:38;;;;;;;16.00;8.98;;;;;;;3.43;63.87;100833.91;5107647;28;20077;-58
2023/03/03 02:38:25;;;;;;;17.45;9.00;;;;;;;3.73;63.23;100830.91;5098285;28;20056;-58
2023/03/03 02:41:02;;;;;;;15.93;8.68;;;;;;;3.77;62.76;100826.63;5098518;28;20119;-58
2023/03/03 02:43:36;;;;;;;15.00;8.50;;;;;;;3.55;63.46;100823.72;5093792;28;20501;-59
2023/03/03 02:46:01;;;;;;;14.27;8.45;;;;;;;3.75;63.01;100815.31;5103599;28;20085;-58
2023/03/03 02:48:27;;;;;;;15.02;8.32;;;;;;;3.68;63.15;100806.56;5115218;28;20517;-58
2023/03/03 02:50:52;;;;;;;14.63;7.70;;;;;;;3.97;62.45;100813.88;5109505;28;20034;-59
2023/03/03 02:53:18;;;;;;;15.80;8.02;;;;;;;3.73;63.04;100809.22;5093341;28;20123;-58
2023/03/03 02:55:43;;;;;;;14.65;7.47;;;;;;;3.48;63.86;100808.03;5092981;28;20032;-57
2023/03/03 02:58:09;;;;;;;11.77;6.75;;;;;;;3.47;63.97;100817.53;5093418;28;20059;-58
2023/03/03 03:00:34;;;;;;;13.10;7.03;;;;;;;3.33;64.62;100808.69;5094659;28;20027;-58
2023/03/03 03:03:00;;;;;;;14.65;7.93;;;;;;;3.40;64.50;100823.50;5076272;28;20034;-61
2023/03/03 03:05:25;;;;;;;14.00;7.30;;;;;;;3.33;64.86;100825.13;5100916;28;20028;-59
2023/03/03 03:07:51;;;;;;;12.85;6.70;;;;;;;3.69;63.56;100813.50;5105735;28;20024;-59
2023/03/03 03:10:16;;;;;;;12.75;6.90;;;;;;;3.57;64.19;100814.22;5094619;28;20032;-58
2023/03/03 03:12:41;;;;;;;11.55;6.45;;;;;;;3.79;63.38;100814.50;5107549;28;20440;-58
2023/03/03 03:15:08;;;;;;;11.95;6.10;;;;;;;3.23;65.33;100820.63;5111208;28;20113;-58
2023/03/03 03:17:36;;;;;;;10.68;6.07;;;;;;;3.45;64.93;100808.84;5094252;28;20089;-58
2023/03/03 03:20:02;;;;;;;9.15;5.60;;;;;;;3.58;64.71;100802.09;5094060;28;20356;-58
2023/03/03 03:22:27;;;;;;;9.00;4.75;;;;;;;3.90;63.70;100797.31;5103998;28;20057;-59
2023/03/03 03:24:53;;;;;;;9.32;5.07;;;;;;;3.86;63.57;100801.59;5090190;28;20044;-58
2023/03/03 03:27:18;;;;;;;9.05;5.32;;;;;;;3.88;63.64;100812.03;5097971;28;20040;-58
2023/03/03 03:29:44;;;;;;;9.13;5.68;;;;;;;3.90;63.82;100813.78;5097682;28;20069;-59
2023/03/03 03:32:11;;;;;;;10.82;5.72;;;;;;;4.02;63.53;100817.38;5099087;28;20035;-59
2023/03/03 03:34:37;;;;;;;8.48;5.03;;;;;;;4.28;62.77;100815.09;5094095;28;20060;-58
2023/03/03 03:37:02;;;;;;;9.05;5.30;;;;;;;4.38;62.71;100811.72;5103421;28;20077;-58
2023/03/03 03:39:28;;;;;;;9.77;5.28;;;;;;;4.51;62.14;100800.59;5104877;28;20137;-58
2023/03/03 03:41:53;;;;;;;7.13;4.28;;;;;;;4.36;62.46;100800.44;5084124;28;20123;-59
2023/03/03 03:44:19;;;;;;;9.13;5.60;;;;;;;4.44;62.56;100806.59;5104033;28;20060;-59
2023/03/03 03:46:44;;;;;;;7.57;4.55;;;;;;;4.85;61.49;100813.91;5094500;28;20040;-58
2023/03/03 03:49:09;;;;;;;9.95;5.45;;;;;;;4.49;62.62;100811.84;5110754;28;20386;-58
2023/03/03 03:51:37;;;;;;;7.43;4.68;;;;;;;4.72;61.89;100809.47;5094287;28;21724;-58
2023/03/03 03:54:02;;;;;;;8.75;4.90;;;;;;;4.89;61.50;100802.66;5090237;28;20067;-58
2023/03/03 03:56:28;;;;;;;8.70;5.05;;;;;;;4.72;62.03;100805.13;5096165;28;20063;-58
2023/03/03 03:58:53;;;;;;;8.93;4.82;;;;;;;4.69;62.14;100800.75;5114214;28;20056;-58
2023/03/03 04:01:19;;;;;;;8.45;5.00;;;;;;;4.88;61.65;100798.31;5092095;28;20031;-58
2023/03/03 04:03:44;;;;;;;10.38;5.38;;;;;;;4.74;62.36;100808.59;5095955;28;20032;-58
2023/03/03 04:06:10;;;;;;;7.95;4.70;;;;;;;4.85;61.89;100793.94;5112660;28;20077;-58
2023/03/03 04:08:35;;;;;;;9.30;5.03;;;;;;;4.75;62.17;100799.94;5119532;28;20027;-58
2023/03/03 04:11:00;;;;;;;10.20;5.35;;;;;;;4.74;62.35;100790.38;5109772;28;20027;-58
2023/03/03 04:13:27;;;;;;;9.45;5.55;;;;;;;4.61;62.70;100792.00;5102216;28;20037;-58
2023/03/03 04:15:53;;;;;;;10.07;5.78;;;;;;;4.09;64.53;100794.06;5117741;28;20059;-58
2023/03/03 04:18:18;;;;;;;8.60;4.65;;;;;;;4.59;63.11;100779.84;5120764;27;20052;-58
2023/03/03 04:20:44;;;;;;;8.38;5.25;;;;;;;4.91;62.10;100777.53;5100836;27;20032;-57
2023/03/03 04:23:10;;;;;;;8.60;5.20;;;;;;;4.26;64.05;100776.03;5095198;28;20032;-57
2023/03/03 04:25:35;;;;;;;9.77;4.97;;;;;;;4.00;65.15;100791.38;5111184;28;20043;-58
2023/03/03 04:28:00;;;;;;;11.18;5.05;;;;;;;4.10;65.20;100790.59;5119928;28;20051;-57
2023/03/03 04:30:26;;;;;;;9.38;5.18;;;;;;;4.12;65.08;100782.84;5120721;27;20034;-58
2023/03/03 04:32:52;;;;;;;8.82;5.03;;;;;;;4.11;64.95;100776.78;5106209;27;20044;-58
2023/03/03 04:35:17;;;;;;;8.63;4.50;;;;;;;4.58;63.64;100773.75;5098857;28;20032;-58
2023/03/03 04:37:43;;;;;;;9.68;4.75;;;;;;;4.64;63.60;100799.84;5098854;28;20490;-57
2023/03/03 04:40:09;;;;;;;6.60;3.95;;;;;;;4.55;63.80;100799.78;5100092;28;20485;-58
2023/03/03 04:42:35;;;;;;;8.40;4.40;;;;;;;4.72;63.11;100791.25;5099006;28;20032;-58
2023/03/03 04:45:00;;;;;;;7.20;3.88;;;;;;;4.43;64.19;100787.50;5100126;28;20532;-57
2023/03/03 04:47:26;;;;;;;7.82;4.13;;;;;;;4.74;63.39;100779.09;5096620;28;20051;-57
2023/03/03 04:49:51;;;;;;;10.68;4.35;;;;;;;4.69;63.64;100803.34;5094352;27;20056;-57
2023/03/03 04:52:17;;;;;;;7.60;3.95;;;;;;;5.00;62.71;100782.78;5097943;28;20040;-57
2023/03/03 04:54:42;;;;;;;9.68;4.25;;;;;;;4.96;63.02;100774.94;5098274;28;20089;-57
2023/03/03 04:57:08;;;;;;;8.77;3.83;;;;;;;5.01;62.66;100781.91;5098206;28;20063;-57
2023/03/03 04:59:34;;;;;;;9.15;4.50;;;;;;;5.04;62.89;100787.16;5118927;27;20089;-58
2023/03/03 05:01:59;;;;;;;8.43;4.20;;;;;;;5.33;61.89;100776.06;5114748;28;20506;-57
2023/03/03 05:04:25;;;;;;;9.27;4.78;;;;;;;5.30;62.13;100774.28;5102708;28;20055;-58
2023/03/03 05:06:50;;;;;;;8.85;4.32;;;;;;;5.19;62.40;100787.28;5105551;28;20479;-57
2023/03/03 05:09:16;;;;;;;11.43;4.97;;;;;;;5.11;62.82;100781.13;5103926;28;20102;-58
2023/03/03 05:11:41;;;;;;;9.60;4.72;;;;;;;5.37;61.94;100777.81;5101111;28;20036;-57
2023/03/03 05:14:07;;;;;;;12.48;6.03;;;;;;;5.38;62.28;100782.16;5104686;28;20471;-58
2023/03/03 05:16:32;;;;;;;13.90;5.82;;;;;;;5.46;62.07;100785.69;5088678;28;20068;-57
2023/03/03 05:18:58;;;;;;;11.80;5.22;;;;;;;5.53;61.85;100774.44;5083269;28;20118;-57
2023/03/03 05:21:23;;;;;;;14.05;6.13;;;;;;;5.65;61.46;100776.22;5101350;28;20070;-57
2023/03/03 05:23:49;;;;;;;13.48;6.10;;;;;;;5.75;61.47;100774.56;5097020;28;20527;-57
2023/03/03 05:26:14;;;;;;;12.20;6.07;;;;;;;5.89;61.12;100762.41;5102145;28;20044;-57
2023/03/03 05:28:40;;;;;;;14.32;6.50;;;;;;;5.49;62.27;100767.47;5097568;28;20036;-57
2023/03/03 05:31:05;;;;;;;18.67;8.10;;;;;;;5.58;62.38;100761.41;5105341;28;20056;-57
2023/03/03 05:33:31;;;;;;;16.55;7.13;;;;;;;5.56;62.60;100755.34;5103738;28;20035;-58
2023/03/03 05:35:56;;;;;;;15.57;6.90;;;;;;;5.24;63.73;100763.84;5097963;28;20040;-57
2023/03/03 05:38:23;;;;;;;13.55;6.22;;;;;;;5.45;63.08;100770.91;5101317;28;20058;-57
2023/03/03 05:40:49;;;;;;;19.40;8.20;;;;;;;5.32;63.62;100784.75;5103432;28;20441;-57
2023/03/03 05:43:14;;;;;;;16.25;7.45;;;;;;;5.51;63.21;100781.38;5102532;28;20051;-58
2023/03/03 05:45:40;;;;;;;17.08;7.63;;;;;;;5.29;64.34;100779.50;5088774;28;20081;-57
2023/03/03 05:48:05;;;;;;;17.05;7.75;;;;;;;5.47;63.57;100787.44;5110359;28;20126;-56
2023/03/03 05:50:31;;;;;;;15.23;6.90;;;;;;;5.56;63.21;100769.25;5098993;28;20016;-55
2023/03/03 05:52:57;;;;;;;16.13;7.38;;;;;;;5.43;63.88;100785.69;5099695;28;20043;-57
2023/03/03 05:55:23;;;;;;;15.48;7.25;;;;;;;5.48;63.87;100791.78;5094735;28;20063;-58
2023/03/03 05:57:48;;;;;;;15.10;6.95;;;;;;;5.45;64.14;100789.16;5100018;28;20125;-54
2023/03/03 06:00:15;;;;;;;17.98;7.80;;;;;;;5.62;63.65;100790.09;5103944;28;20081;-56
2023/03/03 06:02:41;;;;;;;15.07;7.07;;;;;;;5.85;62.69;100784.13;5107129;28;20036;-57
2023/03/03 06:05:07;;;;;;;14.65;6.85;;;;;;;6.03;62.17;100778.16;5098302;28;20040;-55
2023/03/03 06:07:33;;;;;;;15.45;7.43;;;;;;;6.15;61.94;100781.69;5106666;28;20135;-57
2023/03/03 06:09:59;;;;;;;19.67;8.68;;;;;;;5.87;62.82;100779.81;5088389;28;20119;-56
2023/03/03 06:12:24;;;;;;;21.05;8.80;;;;;;;5.71;63.63;100791.03;5090313;28;20539;-56
2023/03/03 06:14:50;;;;;;;18.98;8.80;;;;;;;5.91;63.09;100789.38;5090269;28;20040;-56
2023/03/03 06:17:15;;;;;;;18.75;8.50;;;;;;;5.56;64.21;100797.91;5099548;28;20507;-55
2023/03/03 06:19:41;;;;;;;20.88;9.18;;;;;;;5.73;63.75;100799.72;5107460;28;20644;-56
2023/03/03 06:22:07;;;;;;;19.58;8.55;;;;;;;5.91;63.26;100802.44;5095913;28;20043;-55
2023/03/03 06:24:33;;;;;;;18.05;7.78;;;;;;;6.08;62.50;100806.00;5113376;28;20059;-56
2023/03/03 06:26:59;;;;;;;20.25;8.70;;;;;;;6.21;62.31;100806.03;5113289;28;20028;-55
2023/03/03 06:29:26;;;;;;;16.95;7.50;;;;;;;6.20;62.39;100807.78;5114723;28;20033;-56
2023/03/03 06:31:51;;;;;;;20.02;8.43;;;;;;;6.10;62.59;100813.81;5099981;28;20040;-55
2023/03/03 06:34:17;;;;;;;16.42;8.15;;;;;;;6.13;62.67;100819.91;5095031;28;20046;-55
2023/03/03 06:36:42;;;;;;;18.35;8.88;;;;;;;6.18;62.39;100812.09;5094961;28;20028;-55
2023/03/03 06:39:08;;;;;;;17.80;8.23;;;;;;;6.25;62.10;100818.22;5059935;28;20055;-56
2023/03/03 06:41:33;;;;;;;13.52;6.85;;;;;;;6.70;61.05;100808.72;5093758;28;20107;-55
2023/03/03 06:43:59;;;;;;;16.30;8.40;;;;;;;6.82;60.64;100819.19;5095131;28;20028;-56
2023/03/03 06:46:25;;;;;;;16.90;8.80;;;;;;;6.66;60.78;100815.69;5094993;28;20038;-55
2023/03/03 06:48:51;;;;;;;17.63;9.38;;;;;;;6.77;60.73;100807.88;5094704;28;20036;-56
2023/03/03 06:51:25;;;;;;;18.90;9.40;;;;;;;6.75;60.71;100804.41;5094948;28;20114;-56
2023/03/03 06:53:54;;;;;;;17.83;8.27;;;;;;;6.82;60.32;100801.81;5094689;28;20039;-55
2023/03/03 06:56:20;;;;;;;15.95;7.72;;;;;;;6.75;60.68;100801.78;5094323;28;20533;-56
2023/03/03 06:58:45;;;;;;;17.65;8.40;;;;;;;6.66;60.85;100806.13;5094864;28;20040;-56
2023/03/03 07:01:15;;;;;;;17.17;7.53;;;;;;;6.77;60.50;100797.44;5094723;28;20115;-55
2023/03/03 07:03:41;;;;;;;14.85;7.78;;;;;;;6.83;60.56;100797.44;5094648;28;20110;-55
2023/03/03 07:06:24;;;;;;;13.43;7.57;;;;;;;6.53;60.56;100796.53;5093368;28;20154;-56
2023/03/03 07:08:51;;;;;;;16.33;7.90;;;;;;;6.34;61.71;100795.66;5094812;28;20024;-56
2023/03/03 07:11:20;;;;;;;14.32;6.47;;;;;;;7.08;59.91;100796.56;5094271;28;20423;-56
2023/03/03 07:13:49;;;;;;;13.77;7.75;;;;;;;6.99;59.70;100800.94;5093242;28;20028;-57
2023/03/03 07:16:15;;;;;;;12.98;7.13;;;;;;;7.10;59.50;100791.31;5094120;28;20063;-57
2023/03/03 07:18:54;;;;;;;16.65;8.30;;;;;;;6.73;60.28;100795.69;5094364;28;20024;-56
2023/03/03 07:21:29;;;;;;;14.43;7.97;;;;;;;6.85;60.16;100806.13;5092967;28;20503;-56
2023/03/03 07:23:56;;;;;;;11.93;7.18;;;;;;;7.21;59.37;100793.94;5094337;28;20043;-56
2023/03/03 07:26:31;;;;;;;12.27;6.95;;;;;;;6.93;60.00;100801.78;5094090;28;20116;-56
2023/03/03 07:29:21;;;;;;;14.40;7.85;;;;;;;6.80;60.00;100802.66;5094139;28;20438;-55
2023/03/03 07:31:48;;;;;;;14.20;7.38;;;;;;;7.23;58.93;100787.84;5094096;28;20062;-56
2023/03/03 07:34:21;;;;;;;13.65;7.65;;;;;;;7.26;59.03;100794.78;5076144;28;20032;-57
2023/03/03 07:36:54;;;;;;;;;;;;;;;7.23;58.78;100819.19;5094522;28;20035;-56
2023/03/03 07:39:36;;;;;;;14.38;7.38;;;;;;;7.33;58.71;100814.81;5093079;28;19916;-56
2023/03/03 07:42:08;;;;;;;12.98;7.07;;;;;;;7.47;58.02;100810.44;5093727;28;20433;-57
2023/03/03 07:44:35;;;;;;;15.27;7.80;;;;;;;7.36;58.16;100804.38;5094171;28;20032;-56
2023/03/03 07:47:13;;;;;;;10.85;6.47;;;;;;;7.69;57.38;100799.91;5093665;28;20081;-56
2023/03/03 07:49:38;;;;;;;12.50;6.53;;;;;;;7.88;57.07;100809.44;5093699;28;20067;-57
2023/03/03 07:52:30;;;;;;;13.98;7.78;;;;;;;7.81;56.35;100803.34;5093056;28;20063;-57
2023/03/03 07:54:59;;;;;;;18.23;11.32;;;;;;;8.09;56.71;100806.72;5097706;28;20054;-56
2023/03/03 07:57:35;;;;;;;17.42;9.27;;;;;;;7.89;56.67;100795.47;5093455;28;20352;-56
2023/03/03 08:00:16;;;;;;;12.63;7.45;;;;;;;7.93;56.60;100794.59;5093774;28;20035;-57
2023/03/03 08:03:03;;;;;;;14.95;8.27;;;;;;;7.80;56.36;100801.63;5094110;28;20039;-57
2023/03/03 08:05:34;;;;;;;13.55;7.20;;;;;;;8.27;56.18;100802.31;5107423;28;20451;-57
2023/03/03 08:08:09;;;;;;;15.07;7.28;;;;;;;8.27;55.48;100811.03;5103200;28;20066;-57
2023/03/03 08:10:47;;;;;;;13.32;7.47;;;;;;;7.98;56.16;100803.31;5092406;28;20123;-56
2023/03/03 08:13:42;;;;;;;15.48;6.97;;;;;;;8.42;55.16;100806.59;5112777;28;20111;-57
2023/03/03 08:16:10;;;;;;;13.10;7.10;;;;;;;8.51;55.02;100802.19;5112428;28;20111;-57
2023/03/03 08:18:45;;;;;;;11.55;6.75;;;;;;;8.86;54.19;100807.19;5113790;28;20042;-56
2023/03/03 08:21:26;;;;;;;12.73;7.20;;;;;;;8.87;53.97;100802.81;5114120;28;20055;-57
2023/03/03 08:23:52;;;;;;;10.30;5.90;;;;;;;8.87;54.41;100792.31;5113786;28;20032;-58
2023/03/03 08:26:23;;;;;;;13.77;7.30;;;;;;;8.73;54.12;100787.16;5113631;28;20039;-55
2023/03/03 08:28:49;;;;;;;13.57;7.25;;;;;;;8.83;54.54;100787.97;5113754;28;20023;-55
2023/03/03 08:31:16;;;;;;;12.50;7.45;;;;;;;8.63;54.67;100786.38;5112360;28;20030;-56
2023/03/03 08:33:42;;;;;;;12.30;7.00;;;;;;;9.01;54.15;100790.44;5112570;28;20036;-56
2023/03/03 08:36:08;;;;;;;12.25;7.47;;;;;;;9.23;53.71;100785.00;5112176;28;20072;-57
2023/03/03 08:38:34;;;;;;;11.68;7.03;;;;;;;9.30;53.46;100786.69;5112929;28;20139;-58
2023/03/03 08:40:59;;;;;;;14.85;7.22;;;;;;;9.57;53.26;100777.66;5113627;28;20027;-57
2023/03/03 08:43:25;;;;;;;12.27;6.95;;;;;;;9.62;52.71;100775.84;5114073;28;20116;-57
2023/03/03 08:45:53;;;;;;;15.07;8.38;;;;;;;9.34;52.81;100773.53;5112347;28;20505;-56
2023/03/03 08:48:20;;;;;;;13.70;7.95;;;;;;;9.20;53.38;100775.41;5113816;28;20055;-56
2023/03/03 08:50:46;;;;;;;11.32;6.80;;;;;;;9.30;53.48;100777.06;5106730;28;20043;-56
2023/03/03 08:53:12;;;;;;;13.43;7.30;;;;;;;9.01;53.92;100781.69;5099223;28;20032;-56
2023/03/03 08:55:39;;;;;;;11.25;6.80;;;;;;;9.18;53.67;100784.19;5097085;28;20024;-56
2023/03/03 08:58:05;;;;;;;13.85;7.78;;;;;;;8.81;54.54;100774.00;5096449;28;20032;-56
2023/03/03 09:00:31;;;;;;;13.15;7.43;;;;;;;8.83;54.74;100782.75;5097224;28;20032;-57
2023/03/03 09:02:56;;;;;;;12.05;6.72;;;;;;;8.48;55.09;100775.13;5096741;28;20468;-57
2023/03/03 09:05:23;;;;;;;11.63;6.55;;;;;;;9.12;53.72;100785.97;5095464;28;20056;-57
2023/03/03 09:07:53;;;;;;;12.07;7.03;;;;;;;9.12;53.86;100778.09;5096688;28;20085;-57
2023/03/03 09:10:26;;;;;;;11.30;6.60;;;;;;;8.98;54.21;100784.38;5096289;28;20036;-56
2023/03/03 09:12:51;;;;;;;;;;;;;;;9.34;53.47;100780.53;5097141;28;20485;-57
2023/03/03 09:15:34;;;;;;;10.77;6.45;;;;;;;9.71;52.94;100780.13;5096394;28;19908;-57
2023/03/03 09:18:21;;;;;;;11.15;6.07;;;;;;;9.63;51.93;100781.06;5094888;28;20035;-57
2023/03/03 09:20:56;;;;;;;12.00;6.97;;;;;;;9.34;53.18;100777.91;5096230;28;20390;-57
2023/03/03 09:23:38;;;;;;;10.43;5.72;;;;;;;9.60;52.58;100783.72;5096457;28;20035;-58
2023/03/03 09:26:27;;;;;;;12.15;5.85;;;;;;;9.41;52.81;100776.94;5096418;28;20036;-57
2023/03/03 09:29:25;;;;;;;13.20;6.53;;;;;;;9.74;51.94;100774.84;5086741;28;20052;-57
2023/03/03 09:31:55;;;;;;;13.15;7.22;;;;;;;9.62;52.72;100766.22;5050591;28;20051;-57
2023/03/03 09:34:37;;;;;;;11.85;6.43;;;;;;;9.49;52.96;100779.47;5096049;28;20028;-57
2023/03/03 09:37:24;;;;;;;12.43;6.90;;;;;;;8.87;53.75;100774.84;5096298;28;20074;-57
2023/03/03 09:39:52;;;;;;;12.95;6.95;;;;;;;8.45;54.95;100775.16;5094760;28;20066;-57
2023/03/03 09:42:33;;;;;;;12.30;6.85;;;;;;;8.77;54.29;100772.28;5096018;28;20463;-56
2023/03/03 09:45:36;;;;;;;12.77;6.20;;;;;;;8.88;54.05;100767.84;5096035;28;20040;-58
2023/03/03 09:48:13;;;;;;;15.77;6.88;;;;;;;8.45;54.87;100781.25;5096157;28;20043;-56
2023/03/03 09:50:59;;;;;;;9.30;5.65;;;;;;;8.32;55.88;100772.59;5095910;28;20085;-58
2023/03/03 09:53:43;;;;;;;11.50;5.90;;;;;;;8.76;54.79;100766.19;5095368;28;20138;-56
2023/03/03 09:56:17;;;;;;;10.95;6.30;;;;;;;8.71;54.64;100761.88;5090581;28;20518;-57
2023/03/03 09:59:10;;;;;;;11.65;6.43;;;;;;;8.89;54.71;100766.94;5094424;28;20040;-56
2023/03/03 10:01:41;;;;;;;15.32;6.72;;;;;;;9.23;53.62;100764.03;5094663;28;20031;-57
2023/03/03 10:04:43;;;;;;;15.10;6.80;;;;;;;9.13;53.94;100771.09;5096149;28;20039;-57
2023/03/03 10:07:48;;;;;;;12.13;6.75;;;;;;;9.16;54.21;100765.84;5090765;28;20067;-57
2023/03/03 10:10:28;;;;;;;11.27;6.35;;;;;;;9.13;53.93;100771.97;5093251;28;20040;-57
2023/03/03 10:13:23;;;;;;;13.13;6.93;;;;;;;9.42;53.60;100747.22;5094342;28;20028;-57
2023/03/03 10:16:06;;;;;;;12.18;7.30;;;;;;;9.48;53.34;100757.63;5093430;28;20040;-57
2023/03/03 10:18:49;;;;;;;10.27;6.20;;;;;;;9.37;53.52;100749.00;5095267;28;20445;-57
2023/03/03 10:21:39;;;;;;;9.65;5.75;;;;;;;9.03;54.74;100744.13;5095488;28;20535;-56
2023/03/03 10:24:27;;;;;;;10.15;5.68;;;;;;;9.54;53.75;100743.59;5095504;28;20200;-56
2023/03/03 10:27:37;;;;;;;9.15;5.65;;;;;;;9.61;53.04;100745.25;5094924;28;20072;-57
2023/03/03 10:30:42;;;;;;;10.30;5.63;;;;;;;10.09;52.07;100730.63;5035075;28;20369;-57
2023/03/03 10:33:25;;;;;;;11.00;6.05;;;;;;;10.15;52.21;100739.31;5031096;28;20147;-57
2023/03/03 10:36:03;;;;;;;9.77;5.72;;;;;;;10.26;51.82;100738.31;5084811;28;20495;-58
2023/03/03 10:38:49;;;;;;;12.30;6.05;;;;;;;9.68;52.33;100739.03;5108135;28;20145;-57
2023/03/03 10:41:32;;;;;;;11.73;6.03;;;;;;;9.27;52.94;100748.25;5115343;28;20024;-57
2023/03/03 10:44:06;;;;;;;9.77;5.32;;;;;;;9.38;52.94;100748.16;5115164;28;20031;-58
2023/03/03 10:46:49;;;;;;;11.52;6.03;;;;;;;9.88;52.22;100747.53;5115258;27;20391;-57
2023/03/03 10:49:32;;;;;;;8.63;5.30;;;;;;;10.27;51.18;100745.28;5107028;28;20048;-58
2023/03/03 10:52:16;;;;;;;12.63;6.07;;;;;;;10.60;50.96;100743.88;5113874;28;20055;-57
2023/03/03 10:55:03;;;;;;;11.23;5.95;;;;;;;10.45;51.15;100733.66;5109787;28;20437;-57
2023/03/03 10:58:03;;;;;;;8.52;4.95;;;;;;;10.52;51.05;100724.75;5113608;28;20039;-57
2023/03/03 11:00:40;;;;;;;10.93;5.72;;;;;;;10.66;50.58;100734.19;5097934;28;20028;-58
2023/03/03 11:03:24;;;;;;;12.50;6.18;;;;;;;10.62;49.86;100735.13;5088115;28;20036;-58
2023/03/03 11:06:34;;;;;;;11.55;5.53;;;;;;;10.65;50.54;100735.06;5111409;28;20058;-57
2023/03/03 11:09:12;;;;;;;9.73;5.30;;;;;;;10.70;50.48;100726.22;5082573;28;20118;-57
2023/03/03 11:12:02;;;;;;;11.68;6.18;;;;;;;10.50;51.03;100733.56;5092528;28;20133;-57
2023/03/03 11:14:55;;;;;;;15.20;6.85;;;;;;;10.53;50.26;100721.25;5100803;28;20035;-56
2023/03/03 11:17:26;;;;;;;11.80;6.70;;;;;;;10.37;50.65;100724.97;5094241;28;20060;-57
2023/03/03 11:20:19;;;;;;;11.13;5.50;;;;;;;10.50;50.61;100723.91;5102297;28;20036;-57
2023/03/03 11:23:01;;;;;;;9.65;5.57;;;;;;;10.95;49.96;100726.66;5068914;28;20137;-57
2023/03/03 11:25:46;;;;;;;10.68;5.60;;;;;;;10.29;50.36;100716.34;5095219;28;20114;-57
2023/03/03 11:28:19;;;;;;;8.98;5.15;;;;;;;10.64;49.87;100713.19;5114645;28;20027;-57
2023/03/03 11:31:06;;;;;;;9.10;5.50;;;;;;;10.17;50.37;100712.13;5092604;28;20123;-57
2023/03/03 11:33:38;;;;;;;8.10;5.35;;;;;;;10.10;50.62;100716.63;5091745;28;20463;-57
2023/03/03 11:36:26;;;;;;;10.48;5.55;;;;;;;10.12;50.98;100713.94;5093055;28;20369;-57
2023/03/03 11:39:02;;;;;;;7.63;4.32;;;;;;;10.24;50.33;100712.91;5092770;28;20085;-57
2023/03/03 11:41:52;;;;;;;7.18;4.13;;;;;;;10.37;50.62;100717.09;5093834;28;20039;-57
2023/03/03 11:44:27;;;;;;;10.52;6.13;;;;;;;10.34;50.51;100706.66;5093552;28;20024;-57
2023/03/03 11:47:09;;;;;;;9.98;6.00;;;;;;;10.26;50.63;100724.31;5094186;28;20039;-57
2023/03/03 11:50:12;;;;;;;11.00;5.32;;;;;;;10.73;49.08;100713.03;5093914;28;20028;-57